createdAt,value
2018-10-01T00:03:19.423Z,99.90
2018-10-01T00:08:23.903Z,99.90
2018-10-01T00:13:28.344Z,99.90
2018-10-01T00:18:32.715Z,99.90
2018-10-01T00:23:37.479Z,99.90
2018-10-01T00:28:42.063Z,99.90
2018-10-01T00:33:46.484Z,99.90
2018-10-01T00:38:50.823Z,99.90
2018-10-01T00:43:55.074Z,99.90
2018-10-01T00:48:59.281Z,99.90
2018-10-01T00:54:03.590Z,99.60
2018-10-01T00:59:07.642Z,99.90
2018-10-01T01:04:11.963Z,99.90
2018-10-01T01:09:16.205Z,99.90
2018-10-01T01:14:40.210Z,99.90
2018-10-01T01:19:44.440Z,99.90
2018-10-01T01:24:48.744Z,99.90
2018-10-01T01:29:53.074Z,99.90
2018-10-01T01:34:57.253Z,99.90
2018-10-01T01:40:01.385Z,99.90
2018-10-01T01:45:05.822Z,99.90
2018-10-01T01:50:09.860Z,99.90
2018-10-01T01:55:14.096Z,99.90
2018-10-01T02:00:18.947Z,99.90
2018-10-01T02:05:23.209Z,99.90
2018-10-01T02:10:27.546Z,99.90
2018-10-01T02:15:31.875Z,99.90
2018-10-01T02:20:36.061Z,99.90
2018-10-01T02:25:40.505Z,99.90
2018-10-01T02:30:44.722Z,99.90
2018-10-01T02:35:48.948Z,99.90
2018-10-01T02:40:54.267Z,99.90
2018-10-01T02:45:58.614Z,99.90
2018-10-01T02:51:02.764Z,99.90
2018-10-01T02:56:07.915Z,99.90
2018-10-01T03:01:12.155Z,99.90
2018-10-01T03:06:16.345Z,99.90
2018-10-01T03:11:20.622Z,99.90
2018-10-01T03:16:24.826Z,99.90
2018-10-01T03:21:28.999Z,99.90
2018-10-01T03:26:33.421Z,99.90
2018-10-01T03:31:37.629Z,99.90
2018-10-01T03:36:41.893Z,99.90
2018-10-01T03:41:46.148Z,99.90
2018-10-01T03:46:50.660Z,99.90
2018-10-01T03:51:54.908Z,99.90
2018-10-01T03:56:59.260Z,99.90
2018-10-01T04:02:03.573Z,99.90
2018-10-01T04:07:07.652Z,99.90
2018-10-01T04:12:11.808Z,99.90
2018-10-01T04:17:16.034Z,99.90
2018-10-01T04:22:24.437Z,99.90
2018-10-01T04:27:28.652Z,99.90
2018-10-01T04:32:33.200Z,99.90
2018-10-01T04:37:37.453Z,99.90
2018-10-01T04:42:41.626Z,99.90
2018-10-01T04:47:45.883Z,99.90
2018-10-01T04:52:50.287Z,99.90
2018-10-01T04:57:54.631Z,99.90
2018-10-01T05:02:58.804Z,99.90
2018-10-01T05:08:03.148Z,99.90
2018-10-01T05:13:07.356Z,99.90
2018-10-01T05:18:11.465Z,99.90
2018-10-01T05:23:15.883Z,99.90
2018-10-01T05:28:20.141Z,99.90
2018-10-01T05:33:24.428Z,99.90
2018-10-01T05:38:28.641Z,99.90
2018-10-01T05:43:33.081Z,99.90
2018-10-01T05:48:37.449Z,99.90
2018-10-01T05:53:42.017Z,99.90
2018-10-01T05:58:46.422Z,99.90
2018-10-01T06:03:50.704Z,99.90
2018-10-01T06:08:55.069Z,99.90
2018-10-01T06:13:59.520Z,99.90
2018-10-01T06:19:03.863Z,99.90
2018-10-01T06:24:08.440Z,99.90
2018-10-01T06:29:12.896Z,99.90
2018-10-01T06:34:17.152Z,99.90
2018-10-01T06:39:21.458Z,99.90
2018-10-01T06:44:25.791Z,99.90
2018-10-01T06:49:30.324Z,99.90
2018-10-01T06:54:34.579Z,99.90
2018-10-01T06:59:38.876Z,99.90
2018-10-01T07:04:43.070Z,99.90
2018-10-01T07:09:47.241Z,99.90
2018-10-01T07:14:51.450Z,99.90
2018-10-01T07:19:55.965Z,99.90
2018-10-01T07:25:00.161Z,99.90
2018-10-01T07:30:04.272Z,99.90
2018-10-01T07:35:08.544Z,99.90
2018-10-01T07:40:12.744Z,99.90
2018-10-01T07:45:17.183Z,99.90
2018-10-01T07:50:22.066Z,99.90
2018-10-01T08:01:02.309Z,99.90
2018-10-01T08:06:06.662Z,99.90
2018-10-01T08:11:11.166Z,99.90
2018-10-01T08:16:15.396Z,99.90
2018-10-01T08:21:19.711Z,99.90
2018-10-01T08:26:24.073Z,99.90
2018-10-01T08:31:28.198Z,99.90
2018-10-01T08:36:32.391Z,99.90
2018-10-01T08:41:36.862Z,99.50
2018-10-01T08:46:41.265Z,99.60
2018-10-01T08:51:51.009Z,99.70
2018-10-01T08:56:55.092Z,99.80
2018-10-01T09:02:00.047Z,99.00
2018-10-01T09:07:08.776Z,99.70
2018-10-01T09:12:14.445Z,99.00
2018-10-01T09:17:19.074Z,98.60
2018-10-01T09:22:23.367Z,98.60
2018-10-01T09:27:27.921Z,97.80
2018-10-01T09:32:32.493Z,98.50
2018-10-01T09:37:37.180Z,98.20
2018-10-01T09:42:41.411Z,98.80
2018-10-01T09:47:45.617Z,97.60
2018-10-01T09:52:49.791Z,97.70
2018-10-01T09:57:53.955Z,97.20
2018-10-01T10:02:58.738Z,97.00
2018-10-01T10:08:03.284Z,96.80
2018-10-01T10:13:07.777Z,96.70
2018-10-01T10:18:12.272Z,96.60
2018-10-01T10:23:16.688Z,96.90
2018-10-01T10:28:21.220Z,97.00
2018-10-01T10:33:26.606Z,96.00
2018-10-01T10:38:31.552Z,96.90
2018-10-01T10:43:36.296Z,97.20
2018-10-01T10:48:41.018Z,99.90
2018-10-01T10:53:45.454Z,99.90
2018-10-01T10:58:49.763Z,99.90
2018-10-01T11:03:54.001Z,99.90
2018-10-01T11:08:58.394Z,99.90
2018-10-01T11:14:02.582Z,99.90
2018-10-01T11:19:06.950Z,97.30
2018-10-01T11:24:11.192Z,97.40
2018-10-01T11:29:15.531Z,98.10
2018-10-01T11:34:20.399Z,99.90
2018-10-01T11:39:24.823Z,99.90
2018-10-01T11:44:28.983Z,99.90
2018-10-01T11:49:33.397Z,99.90
2018-10-01T11:54:37.904Z,99.90
2018-10-01T11:59:42.242Z,99.90
2018-10-01T12:04:46.604Z,99.90
2018-10-01T12:09:51.084Z,99.90
2018-10-01T12:14:55.338Z,99.90
2018-10-01T12:19:59.608Z,99.90
2018-10-01T12:25:03.995Z,99.50
2018-10-01T12:30:08.355Z,99.30
2018-10-01T12:40:18.754Z,99.90
2018-10-01T12:45:23.074Z,99.90
2018-10-01T12:50:27.328Z,99.90
2018-10-01T12:55:32.657Z,99.90
2018-10-01T13:00:36.895Z,99.90
2018-10-01T13:05:41.228Z,99.90
2018-10-01T13:10:45.563Z,99.90
2018-10-01T13:15:49.851Z,99.90
2018-10-01T13:20:54.263Z,99.90
2018-10-01T13:25:58.540Z,99.90
2018-10-01T13:31:03.797Z,99.10
2018-10-01T13:36:11.696Z,98.70
2018-10-01T13:41:15.969Z,96.60
2018-10-01T13:46:20.212Z,97.10
2018-10-01T13:51:24.527Z,94.30
2018-10-01T13:56:29.000Z,93.60
2018-10-01T14:01:33.381Z,91.60
2018-10-01T14:06:37.656Z,91.60
2018-10-01T14:11:42.048Z,91.50
2018-10-01T14:16:46.314Z,91.20
2018-10-01T14:21:50.616Z,91.30
2018-10-01T14:26:54.996Z,90.20
2018-10-01T14:32:07.609Z,90.90
2018-10-01T14:37:25.227Z,90.50
2018-10-01T14:42:43.948Z,89.50
2018-10-01T14:48:15.351Z,87.80
2018-10-01T14:53:31.920Z,87.80
2018-10-01T14:59:03.118Z,87.80
2018-10-01T15:04:27.199Z,90.50
2018-10-01T15:09:48.820Z,91.20
2018-10-01T15:15:06.629Z,91.60
2018-10-01T15:20:19.434Z,90.30
2018-10-01T15:25:33.431Z,89.30
2018-10-01T15:30:46.957Z,89.30
2018-10-01T15:35:59.920Z,90.90
2018-10-01T15:41:18.296Z,95.20
2018-10-01T15:46:37.513Z,95.70
2018-10-01T15:51:55.643Z,96.20
2018-10-01T15:57:10.298Z,99.70
2018-10-01T16:02:24.076Z,98.50
2018-10-01T16:07:37.461Z,98.60
2018-10-01T16:12:42.477Z,98.00
2018-10-01T16:17:46.821Z,98.20
2018-10-01T16:22:51.123Z,98.10
2018-10-01T16:27:55.542Z,98.10
2018-10-01T16:33:00.388Z,98.50
2018-10-01T16:38:04.642Z,98.30
2018-10-01T16:43:08.921Z,98.50
2018-10-01T16:48:13.233Z,98.60
2018-10-01T16:53:17.431Z,99.00
2018-10-01T16:58:21.917Z,98.80
2018-10-01T17:03:25.987Z,99.90
2018-10-01T17:08:31.049Z,99.70
2018-10-01T17:13:35.500Z,99.40
2018-10-01T17:18:39.857Z,99.40
2018-10-01T17:23:45.852Z,98.40
2018-10-01T17:28:50.390Z,98.90
2018-10-01T17:33:55.181Z,99.20
2018-10-01T17:38:59.559Z,98.90
2018-10-01T17:44:03.897Z,99.00
2018-10-01T17:49:08.608Z,98.70
2018-10-01T17:54:14.212Z,98.80
2018-10-01T17:59:18.584Z,98.40
2018-10-01T18:04:23.027Z,98.70
2018-10-01T18:09:27.523Z,98.10
2018-10-01T18:14:32.869Z,98.60
2018-10-01T18:19:37.207Z,98.40
2018-10-01T18:24:41.584Z,98.50
2018-10-01T18:29:45.830Z,98.70
2018-10-01T18:34:50.137Z,98.70
2018-10-01T18:39:54.836Z,99.00
2018-10-01T18:44:59.218Z,99.20
2018-10-01T18:50:03.732Z,99.20
2018-10-01T18:55:10.006Z,99.10
2018-10-01T19:00:14.529Z,98.90
2018-10-01T19:05:19.702Z,99.70
2018-10-01T19:10:24.438Z,99.70
2018-10-01T19:15:29.454Z,99.30
2018-10-01T19:20:33.678Z,99.40
2018-10-01T19:25:38.735Z,99.90
2018-10-01T19:30:43.244Z,99.90
2018-10-01T19:35:47.592Z,99.90
2018-10-01T19:40:51.878Z,99.90
2018-10-01T19:45:56.388Z,99.90
2018-10-01T19:51:00.996Z,99.90
2018-10-01T19:56:05.412Z,99.90
2018-10-01T20:01:09.706Z,99.90
2018-10-01T20:06:15.241Z,99.90
2018-10-01T20:11:20.649Z,99.90
2018-10-01T20:16:24.977Z,99.90
2018-10-01T20:21:30.150Z,99.80
2018-10-01T20:26:34.619Z,99.90
2018-10-01T20:31:38.755Z,99.90
2018-10-01T20:36:43.202Z,99.90
2018-10-01T20:41:47.519Z,99.90
2018-10-01T20:46:51.988Z,99.90
2018-10-01T20:51:56.278Z,99.90
2018-10-01T20:57:00.605Z,99.90
2018-10-01T21:02:04.848Z,99.90
2018-10-01T21:07:09.024Z,99.90
2018-10-01T21:12:13.267Z,99.90
2018-10-01T21:17:17.646Z,99.90
2018-10-01T21:22:22.244Z,99.90
2018-10-01T21:27:26.367Z,99.90
2018-10-01T21:32:30.746Z,99.90
2018-10-01T21:37:35.088Z,99.90
2018-10-01T21:42:39.321Z,99.90
2018-10-01T21:47:43.568Z,99.90
2018-10-01T21:52:47.791Z,99.90
2018-10-01T21:57:52.008Z,99.90
2018-10-01T22:02:56.201Z,99.90
2018-10-01T22:08:10.158Z,99.90
2018-10-01T22:13:33.561Z,99.90
2018-10-01T22:18:48.978Z,99.90
2018-10-01T22:24:07.808Z,99.90
2018-10-01T22:29:38.519Z,99.90
2018-10-01T22:34:58.508Z,99.90
2018-10-01T22:40:21.514Z,99.90
2018-10-01T22:45:34.717Z,99.90
2018-10-01T22:50:44.989Z,99.90
2018-10-01T22:56:01.173Z,99.90
2018-10-01T23:01:25.101Z,99.90
2018-10-01T23:06:31.629Z,99.90
2018-10-01T23:11:36.348Z,99.90
2018-10-01T23:16:40.589Z,99.90
2018-10-01T23:21:44.782Z,99.90
2018-10-01T23:26:48.942Z,99.90
2018-10-01T23:31:53.148Z,99.90
2018-10-01T23:36:57.449Z,99.90
2018-10-01T23:42:01.726Z,99.90
2018-10-01T23:47:05.988Z,99.90
2018-10-01T23:52:10.224Z,99.90
2018-10-01T23:57:14.465Z,99.90
